Millington, MD (21651)

4:25 AM EDT on August 04, 2015 (GMT -0400)
PUCK'S GLEN FARM | | Change Station
CLOSE
Current Station
Personal Weather Station
Location: Millington, MD
Elevation: 50 ft
Nearby Weather Stations

Elev 50 ft 39.25 °N, 75.91 °W | Updated 45 seconds ago

Clear
Clear
76.2 °F
Feels Like 78 °F
N
3.0
Wind Variable Wind from WSW

Today
High -- | Low -- °F
--% Chance of Precip.
Yesterday
High -- | Low -- °F
Precip. -- in
6:05 AM 8:12 PM
Waning Gibbous, 79% visible
Pressure 29.85 in
Visibility 10.0 miles
Clouds Clear
Heat Index 78 °F
Dew Point 68 °F
Humidity 75%
Rainfall 0.00 in
Snow Depth Not available.
UV 0 out of 12
Pollen 6.90 out of 12
Air Quality Not available.
Flu Activity Not available.
METAR KDOV 040758Z AUTO 21009KT 10SM CLR 25/25 A2984 RMK AO2 SLP108 T02530253 VISNO RWY19 CHINO RWY19 $

More Conditions Fewer Conditions

Pressure 29.85 in
Visibility 10.0 miles
Clouds Clear
Heat Index 78 °F
Dew Point 68 °F
Humidity 75%
Rainfall 0.00 in
Snow Depth Not available.
UV 0 out of 12
Pollen 6.90 out of 12
Air Quality Not available.
Flu Activity Not available.
METAR KDOV 040758Z AUTO 21009KT 10SM CLR 25/25 A2984 RMK AO2 SLP108 T02530253 VISNO RWY19 CHINO RWY19 $

More Conditions Fewer Conditions

10-Day Weather Forecast

×

Almanac

Astronomy

Aug. 04, 2015 Rise Set
Actual Time
Civil Twilight
Nautical Twilight
Astronomical Twilight
Moon
Length of Visible Light
Length of Day
Tomorrow will be .
, % of the Moon is Illuminated

Today's Extremes

State Highs State Lows

Community

WunderPhotos

Upload Photos

1,843,877 photos uploaded!

WunderBlogs® & News

Nearby

Air Quality

  Air Quality AQ Index Pollutant
Not available.

Snow Depth

Station Depth Elevation

Earthquake Activity

City Distance Mag. Time & Date
Minimum magnitude displayed is 2.5.

Coastal Water Temperatures

Place Temperature

Stations

Nearby Weather Stations

Station Location Temp. Windchill Dew Point Humidity Wind Precip. Elev Updated Type